createdAt,value
2022-09-17T00:00:39.407Z,67.57
2022-09-17T00:01:39.455Z,67.40
2022-09-17T00:02:39.374Z,67.77
2022-09-17T00:03:39.449Z,67.97
2022-09-17T00:04:39.326Z,67.80
2022-09-17T00:05:39.323Z,67.91
2022-09-17T00:06:39.350Z,67.91
2022-09-17T00:07:39.290Z,67.91
2022-09-17T00:08:39.282Z,68.08
2022-09-17T00:09:39.264Z,68.18
2022-09-17T00:10:39.263Z,67.67
2022-09-17T00:11:39.299Z,67.67
2022-09-17T00:12:39.240Z,68.08
2022-09-17T00:13:39.224Z,68.18
2022-09-17T00:14:39.215Z,67.57
2022-09-17T00:15:39.211Z,68.08
2022-09-17T00:16:39.242Z,67.77
2022-09-17T00:17:39.193Z,67.77
2022-09-17T00:18:39.181Z,67.88
2022-09-17T00:19:39.268Z,67.97
2022-09-17T00:20:39.151Z,68.18
2022-09-17T00:21:39.181Z,67.64
2022-09-17T00:22:39.137Z,68.08
2022-09-17T00:23:39.179Z,67.74
2022-09-17T00:24:39.100Z,67.54
2022-09-17T00:25:39.094Z,67.64
2022-09-17T00:26:39.097Z,67.74
2022-09-17T00:27:39.078Z,67.64
2022-09-17T00:28:39.076Z,67.54
2022-09-17T00:29:39.110Z,67.84
2022-09-17T00:30:39.036Z,67.57
2022-09-17T00:31:39.170Z,67.57
2022-09-17T00:32:39.020Z,67.64
2022-09-17T00:33:39.008Z,68.18
2022-09-17T00:34:39.002Z,67.67
2022-09-17T00:35:39.100Z,67.97
2022-09-17T00:36:39.028Z,68.08
2022-09-17T00:37:38.961Z,67.84
2022-09-17T00:38:38.951Z,67.74
2022-09-17T00:39:38.942Z,67.74
2022-09-17T00:40:38.938Z,68.05
2022-09-17T00:41:38.958Z,67.64
2022-09-17T00:42:38.912Z,67.74
2022-09-17T00:43:38.907Z,68.05
2022-09-17T00:44:38.885Z,67.84
2022-09-17T00:45:40.056Z,68.28
2022-09-17T00:46:39.095Z,68.25
2022-09-17T00:47:38.847Z,67.74
2022-09-17T00:48:38.834Z,68.45
2022-09-17T00:49:38.836Z,68.15
2022-09-17T00:50:38.815Z,68.35
2022-09-17T00:51:38.934Z,68.59
2022-09-17T00:52:38.853Z,68.25
2022-09-17T00:53:38.781Z,68.15
2022-09-17T00:54:38.781Z,68.05
2022-09-17T00:55:38.801Z,68.35
2022-09-17T00:56:38.752Z,68.15
2022-09-17T00:57:38.799Z,67.77
2022-09-17T00:58:41.327Z,68.35
2022-09-17T00:59:38.715Z,68.25
2022-09-17T01:00:38.808Z,68.15
2022-09-17T01:01:38.768Z,67.84
2022-09-17T01:02:38.742Z,68.35
2022-09-17T01:03:38.804Z,68.25
2022-09-17T01:04:38.673Z,68.35
2022-09-17T01:05:38.658Z,68.35
2022-09-17T01:06:38.638Z,68.35
2022-09-17T01:07:38.746Z,68.45
2022-09-17T01:08:38.654Z,67.81
2022-09-17T01:09:38.664Z,68.05
2022-09-17T01:10:38.594Z,68.45
2022-09-17T01:11:38.587Z,68.55
2022-09-17T01:12:38.595Z,68.45
2022-09-17T01:13:38.560Z,68.49
2022-09-17T01:14:38.562Z,68.76
2022-09-17T01:15:38.596Z,68.45
2022-09-17T01:16:38.527Z,68.55
2022-09-17T01:17:38.575Z,68.45
2022-09-17T01:18:38.536Z,68.35
2022-09-17T01:19:38.511Z,68.86
2022-09-17T01:20:38.496Z,68.86
2022-09-17T01:21:38.487Z,68.76
2022-09-17T01:22:38.516Z,68.86
2022-09-17T01:23:38.565Z,68.73
2022-09-17T01:24:38.461Z,68.66
2022-09-17T01:25:38.439Z,68.93
2022-09-17T01:26:39.283Z,68.76
2022-09-17T01:27:41.383Z,69.06
2022-09-17T01:28:38.408Z,69.06
2022-09-17T01:29:38.389Z,69.06
2022-09-17T01:30:38.372Z,69.37
2022-09-17T01:31:38.436Z,69.23
2022-09-17T01:32:38.377Z,69.03
2022-09-17T01:33:38.349Z,69.13
2022-09-17T01:34:38.355Z,69.03
2022-09-17T01:35:38.399Z,68.73
2022-09-17T01:36:38.311Z,68.62
2022-09-17T01:37:38.347Z,69.03
2022-09-17T01:38:38.302Z,68.73
2022-09-17T01:39:38.389Z,69.03
2022-09-17T01:40:38.272Z,68.93
2022-09-17T01:41:38.259Z,68.83
2022-09-17T01:42:38.248Z,69.03
2022-09-17T01:43:38.279Z,68.96
2022-09-17T01:44:38.217Z,68.93
2022-09-17T01:45:38.208Z,68.73
2022-09-17T01:46:38.247Z,68.83
2022-09-17T01:47:38.222Z,69.13
2022-09-17T01:48:38.213Z,69.13
2022-09-17T01:49:38.186Z,69.67
2022-09-17T01:50:38.201Z,69.78
2022-09-17T01:51:38.191Z,69.37
2022-09-17T01:52:38.140Z,69.13
2022-09-17T01:53:38.167Z,69.03
2022-09-17T01:54:41.805Z,69.34
2022-09-17T01:55:38.210Z,69.95
2022-09-17T01:56:38.088Z,69.34
2022-09-17T01:57:38.076Z,68.93
2022-09-17T01:58:38.066Z,68.93
2022-09-17T01:59:38.099Z,68.52
2022-09-17T02:00:38.161Z,68.79
2022-09-17T02:01:38.128Z,68.73
2022-09-17T02:02:38.025Z,68.79
2022-09-17T02:03:38.015Z,68.83
2022-09-17T02:04:38.330Z,69.20
2022-09-17T02:05:37.988Z,69.00
2022-09-17T02:06:37.999Z,68.93
2022-09-17T02:07:38.011Z,68.70
2022-09-17T02:08:38.023Z,68.73
2022-09-17T02:09:37.951Z,68.79
2022-09-17T02:10:37.950Z,69.03
2022-09-17T02:11:38.080Z,69.00
2022-09-17T02:12:37.920Z,69.03
2022-09-17T02:13:37.897Z,69.03
2022-09-17T02:14:37.889Z,69.10
2022-09-17T02:15:37.880Z,69.13
2022-09-17T02:16:37.872Z,69.34
2022-09-17T02:17:37.898Z,69.54
2022-09-17T02:18:37.852Z,70.04
2022-09-17T02:19:37.879Z,69.84
2022-09-17T02:20:37.830Z,69.54
2022-09-17T02:21:37.815Z,69.84
2022-09-17T02:22:37.808Z,69.95
2022-09-17T02:23:37.807Z,69.74
2022-09-17T02:24:37.830Z,69.84
2022-09-17T02:25:37.766Z,70.28
2022-09-17T02:26:37.829Z,70.79
2022-09-17T02:27:37.864Z,70.96
2022-09-17T02:28:37.741Z,70.35
2022-09-17T02:29:37.733Z,70.55
2022-09-17T02:30:37.714Z,70.76
2022-09-17T02:31:37.819Z,70.25
2022-09-17T02:32:37.750Z,70.45
2022-09-17T02:33:37.687Z,70.65
2022-09-17T02:34:37.675Z,70.79
2022-09-17T02:35:37.710Z,70.59
2022-09-17T02:36:37.643Z,70.86
2022-09-17T02:37:37.633Z,70.45
2022-09-17T02:38:37.634Z,70.96
2022-09-17T02:39:37.611Z,70.45
2022-09-17T02:40:37.709Z,70.68
2022-09-17T02:41:37.638Z,69.95
2022-09-17T02:42:37.581Z,70.08
2022-09-17T02:43:37.743Z,69.95
2022-09-17T02:44:37.562Z,70.04
2022-09-17T02:45:37.600Z,69.95
2022-09-17T02:46:37.624Z,69.95
2022-09-17T02:47:37.536Z,70.04
2022-09-17T02:48:37.524Z,69.95
2022-09-17T02:49:37.503Z,71.16
2022-09-17T02:50:37.535Z,70.25
2022-09-17T02:51:37.520Z,70.55
2022-09-17T02:52:37.480Z,71.06
2022-09-17T02:53:37.457Z,71.26
2022-09-17T02:54:37.450Z,71.16
2022-09-17T02:55:37.439Z,71.77
2022-09-17T02:56:37.474Z,71.16
2022-09-17T02:57:37.414Z,71.06
2022-09-17T02:58:37.415Z,71.80
2022-09-17T02:59:37.514Z,71.70
2022-09-17T03:00:37.506Z,71.80
2022-09-17T03:01:37.397Z,71.53
2022-09-17T03:02:37.410Z,71.43
2022-09-17T03:03:37.348Z,71.73
2022-09-17T03:04:37.354Z,71.94
2022-09-17T03:05:37.332Z,72.11
2022-09-17T03:06:37.314Z,72.04
2022-09-17T03:07:37.311Z,72.25
2022-09-17T03:08:37.351Z,72.11
2022-09-17T03:09:37.287Z,71.64
2022-09-17T03:10:37.281Z,71.94
2022-09-17T03:11:37.308Z,72.65
2022-09-17T03:12:37.305Z,72.55
2022-09-17T03:13:37.237Z,72.41
2022-09-17T03:14:37.244Z,72.92
2022-09-17T03:15:37.333Z,73.06
2022-09-17T03:16:37.285Z,73.26
2022-09-17T03:17:37.205Z,73.26
2022-09-17T03:18:37.250Z,73.36
2022-09-17T03:19:37.214Z,74.01
2022-09-17T03:20:37.163Z,73.97
2022-09-17T03:21:37.170Z,73.97
2022-09-17T03:22:37.156Z,73.87
2022-09-17T03:23:37.125Z,73.87
2022-09-17T03:24:37.178Z,73.57
2022-09-17T03:25:37.118Z,73.87
2022-09-17T03:26:37.095Z,73.77
2022-09-17T03:27:37.091Z,73.36
2022-09-17T03:28:37.115Z,73.77
2022-09-17T03:29:37.059Z,73.94
2022-09-17T03:30:37.120Z,73.67
2022-09-17T03:31:37.229Z,73.74
2022-09-17T03:32:37.031Z,73.97
2022-09-17T03:33:37.022Z,74.99
2022-09-17T03:34:37.005Z,75.09
2022-09-17T03:35:37.023Z,73.77
2022-09-17T03:36:37.050Z,74.18
2022-09-17T03:37:36.973Z,74.07
2022-09-17T03:38:37.011Z,74.88
2022-09-17T03:39:36.962Z,74.68
2022-09-17T03:40:37.022Z,74.58
2022-09-17T03:41:36.974Z,74.88
2022-09-17T03:42:36.996Z,75.19
2022-09-17T03:43:36.906Z,74.88
2022-09-17T03:44:36.905Z,74.79
2022-09-17T03:45:36.900Z,74.88
2022-09-17T03:46:36.916Z,74.79
2022-09-17T03:47:36.973Z,74.88
2022-09-17T03:48:36.900Z,74.95
2022-09-17T03:49:36.840Z,74.88
2022-09-17T03:50:36.883Z,75.70
2022-09-17T03:51:36.824Z,75.80
2022-09-17T03:52:36.809Z,76.21
2022-09-17T03:53:36.799Z,76.21
2022-09-17T03:54:36.800Z,76.61
2022-09-17T03:55:36.773Z,76.61
2022-09-17T03:56:36.823Z,76.98
2022-09-17T03:57:36.756Z,76.82
2022-09-17T03:58:36.794Z,77.22
2022-09-17T03:59:36.786Z,76.82
2022-09-17T04:00:36.723Z,77.12
2022-09-17T04:01:36.763Z,77.53
2022-09-17T04:02:36.828Z,78.34
2022-09-17T04:03:36.808Z,78.28
2022-09-17T04:04:36.716Z,78.34
2022-09-17T04:05:36.729Z,78.68
2022-09-17T04:06:36.664Z,78.58
2022-09-17T04:07:36.648Z,78.78
2022-09-17T04:08:36.649Z,79.19
2022-09-17T04:09:36.625Z,79.50
2022-09-17T04:10:36.667Z,80.11
2022-09-17T04:11:36.599Z,80.04
2022-09-17T04:12:36.689Z,79.53
2022-09-17T04:13:36.573Z,80.45
2022-09-17T04:14:36.566Z,80.45
2022-09-17T04:15:36.596Z,80.41
2022-09-17T04:16:36.592Z,80.31
2022-09-17T04:17:36.541Z,80.21
2022-09-17T04:18:36.518Z,80.15
2022-09-17T04:19:36.668Z,80.35
2022-09-17T04:20:36.536Z,80.45
2022-09-17T04:21:36.539Z,80.55
2022-09-17T04:22:36.480Z,81.46
2022-09-17T04:23:36.482Z,81.06
2022-09-17T04:24:36.507Z,81.46
2022-09-17T04:25:36.449Z,81.37
2022-09-17T04:26:36.432Z,81.46
2022-09-17T04:27:36.434Z,81.06
2022-09-17T04:28:36.407Z,81.06
2022-09-17T04:29:36.401Z,81.77
2022-09-17T04:30:36.482Z,81.53
2022-09-17T04:31:36.443Z,81.06
2022-09-17T04:32:36.417Z,81.87
2022-09-17T04:33:36.355Z,81.77
2022-09-17T04:34:36.343Z,82.18
2022-09-17T04:35:36.446Z,81.98
2022-09-17T04:36:36.333Z,82.07
2022-09-17T04:37:36.338Z,82.18
2022-09-17T04:38:36.348Z,82.38
2022-09-17T04:39:36.285Z,83.09
2022-09-17T04:40:36.461Z,83.20
2022-09-17T04:41:36.318Z,82.85
2022-09-17T04:42:36.265Z,82.99
2022-09-17T04:43:36.249Z,83.09
2022-09-17T04:44:36.244Z,82.99
2022-09-17T04:45:36.282Z,83.09
2022-09-17T04:46:36.279Z,83.50
2022-09-17T04:47:36.262Z,83.46
2022-09-17T04:48:36.216Z,82.95
2022-09-17T04:49:36.196Z,82.99
2022-09-17T04:50:36.178Z,83.06
2022-09-17T04:51:36.328Z,83.09
2022-09-17T04:52:36.193Z,82.99
2022-09-17T04:53:36.143Z,83.60
2022-09-17T04:54:36.131Z,83.40
2022-09-17T04:55:36.155Z,83.06
2022-09-17T04:56:36.104Z,83.09
2022-09-17T04:57:36.175Z,82.95
2022-09-17T04:58:36.078Z,82.95
2022-09-17T04:59:36.072Z,82.95
2022-09-17T05:00:36.112Z,82.95
2022-09-17T05:01:36.213Z,82.85
2022-09-17T05:02:36.113Z,82.85
2022-09-17T05:03:36.092Z,82.54
2022-09-17T05:04:36.024Z,82.34
2022-09-17T05:05:36.018Z,82.54
2022-09-17T05:06:36.007Z,82.54
2022-09-17T05:07:36.104Z,82.45
2022-09-17T05:08:36.030Z,83.26
2022-09-17T05:09:35.977Z,82.85
2022-09-17T05:10:36.016Z,82.95
2022-09-17T05:11:35.939Z,82.54
2022-09-17T05:12:35.940Z,83.15
2022-09-17T05:13:35.954Z,82.95
2022-09-17T05:14:35.956Z,82.54
2022-09-17T05:15:35.901Z,83.06
2022-09-17T05:16:35.922Z,82.54
2022-09-17T05:17:35.886Z,82.75
2022-09-17T05:18:35.865Z,82.45
2022-09-17T05:19:35.887Z,82.34
2022-09-17T05:20:35.898Z,82.54
2022-09-17T05:21:35.829Z,81.93
2022-09-17T05:22:35.817Z,82.24
2022-09-17T05:23:35.931Z,82.04
2022-09-17T05:24:35.831Z,81.93
2022-09-17T05:25:35.837Z,82.24
2022-09-17T05:26:35.771Z,82.00
2022-09-17T05:27:35.761Z,81.70
2022-09-17T05:28:35.755Z,81.90
2022-09-17T05:29:35.752Z,81.29
2022-09-17T05:30:35.774Z,81.43
2022-09-17T05:31:35.835Z,81.49
2022-09-17T05:32:35.707Z,81.59
2022-09-17T05:33:35.702Z,81.70
2022-09-17T05:34:35.694Z,81.02
2022-09-17T05:35:35.732Z,81.12
2022-09-17T05:36:35.660Z,81.23
2022-09-17T05:37:35.649Z,81.84
2022-09-17T05:38:35.671Z,81.49
2022-09-17T05:39:35.780Z,81.39
2022-09-17T05:40:35.746Z,81.59
2022-09-17T05:41:35.665Z,80.98
2022-09-17T05:42:35.593Z,81.39
2022-09-17T05:43:35.584Z,81.49
2022-09-17T05:44:35.597Z,81.39
2022-09-17T05:45:35.615Z,81.19
2022-09-17T05:46:35.635Z,80.68
2022-09-17T05:47:35.538Z,81.19
2022-09-17T05:48:35.535Z,81.29
2022-09-17T05:49:35.528Z,81.39
2022-09-17T05:50:35.509Z,81.56
2022-09-17T05:51:35.564Z,81.15
2022-09-17T05:52:35.497Z,81.45
2022-09-17T05:53:35.476Z,80.84
2022-09-17T05:54:35.466Z,80.54
2022-09-17T05:55:35.636Z,80.33
2022-09-17T05:56:35.448Z,80.33
2022-09-17T05:57:35.485Z,80.33
2022-09-17T05:58:35.440Z,79.83
2022-09-17T05:59:35.406Z,79.69
2022-09-17T06:00:35.398Z,79.63
2022-09-17T06:01:35.454Z,79.63
2022-09-17T06:02:35.470Z,79.69
2022-09-17T06:03:35.380Z,79.59
2022-09-17T06:04:35.396Z,79.79
2022-09-17T06:05:35.343Z,79.38
2022-09-17T06:06:35.340Z,79.28
2022-09-17T06:07:35.339Z,80.19
2022-09-17T06:08:35.311Z,79.28
2022-09-17T06:09:35.303Z,79.90
2022-09-17T06:10:35.325Z,80.10
2022-09-17T06:11:35.441Z,79.38
2022-09-17T06:12:35.269Z,79.63
2022-09-17T06:13:35.279Z,79.42
2022-09-17T06:14:35.291Z,79.42
2022-09-17T06:15:35.248Z,79.49
2022-09-17T06:16:35.286Z,79.49
2022-09-17T06:17:35.267Z,79.38
2022-09-17T06:18:35.224Z,79.35
2022-09-17T06:19:35.190Z,79.18
2022-09-17T06:20:35.188Z,78.98
2022-09-17T06:21:35.173Z,78.88
2022-09-17T06:22:35.151Z,78.88
2022-09-17T06:23:35.275Z,78.64
2022-09-17T06:24:35.137Z,78.98
2022-09-17T06:25:35.163Z,78.98
2022-09-17T06:26:35.117Z,78.78
2022-09-17T06:27:35.217Z,78.67
2022-09-17T06:28:40.549Z,78.98
2022-09-17T06:29:35.140Z,78.57
2022-09-17T06:30:35.070Z,78.98
2022-09-17T06:31:35.186Z,78.47
2022-09-17T06:32:35.056Z,79.08
2022-09-17T06:33:35.031Z,78.06
2022-09-17T06:34:35.070Z,78.27
2022-09-17T06:35:35.153Z,78.44
2022-09-17T06:36:35.004Z,78.53
2022-09-17T06:37:34.993Z,78.17
2022-09-17T06:38:34.981Z,78.10
2022-09-17T06:39:34.965Z,78.10
2022-09-17T06:40:35.102Z,78.10
2022-09-17T06:41:35.002Z,78.57
2022-09-17T06:42:34.933Z,77.66
2022-09-17T06:43:35.038Z,77.66
2022-09-17T06:44:34.936Z,77.59
2022-09-17T06:45:34.904Z,78.06
2022-09-17T06:46:35.000Z,77.56
2022-09-17T06:47:34.962Z,77.45
2022-09-17T06:48:34.875Z,77.15
2022-09-17T06:49:34.911Z,77.45
2022-09-17T06:50:37.326Z,76.75
2022-09-17T06:51:35.839Z,77.05
2022-09-17T06:52:34.870Z,76.91
2022-09-17T06:53:34.818Z,76.61
2022-09-17T06:54:34.818Z,76.20
2022-09-17T06:55:34.815Z,76.51
2022-09-17T06:56:34.779Z,76.71
2022-09-17T06:57:34.800Z,75.70
2022-09-17T06:58:34.818Z,75.79
2022-09-17T06:59:34.867Z,76.34
2022-09-17T07:00:34.867Z,76.10
2022-09-17T07:01:34.808Z,76.40
2022-09-17T07:02:34.734Z,76.47
2022-09-17T07:03:34.707Z,76.10
2022-09-17T07:04:34.748Z,76.47
2022-09-17T07:05:34.685Z,75.66
2022-09-17T07:06:34.718Z,75.25
2022-09-17T07:07:34.664Z,75.76
2022-09-17T07:08:34.691Z,75.86
2022-09-17T07:09:34.659Z,74.91
2022-09-17T07:10:34.621Z,74.65
2022-09-17T07:11:34.661Z,74.54
2022-09-17T07:12:34.616Z,74.74
2022-09-17T07:13:34.600Z,74.04
2022-09-17T07:14:34.678Z,74.71
2022-09-17T07:15:34.684Z,73.53
2022-09-17T07:16:34.713Z,73.73
2022-09-17T07:17:34.603Z,73.83
2022-09-17T07:18:34.587Z,73.93
2022-09-17T07:19:34.539Z,73.43
2022-09-17T07:20:34.512Z,72.99
2022-09-17T07:21:34.519Z,73.12
2022-09-17T07:22:34.619Z,73.49
2022-09-17T07:23:34.495Z,72.89
2022-09-17T07:24:34.471Z,71.67
2022-09-17T07:25:34.479Z,72.58
2022-09-17T07:26:34.456Z,71.77
2022-09-17T07:27:34.447Z,72.28
2022-09-17T07:28:34.468Z,72.38
2022-09-17T07:29:34.415Z,71.88
2022-09-17T07:30:34.411Z,72.14
2022-09-17T07:31:34.653Z,72.24
2022-09-17T07:32:34.390Z,72.65
2022-09-17T07:33:34.428Z,72.55
2022-09-17T07:34:34.367Z,72.11
2022-09-17T07:35:34.353Z,72.31
2022-09-17T07:36:34.349Z,72.41
2022-09-17T07:37:34.328Z,71.60
2022-09-17T07:38:34.375Z,71.60
2022-09-17T07:39:34.303Z,71.33
2022-09-17T07:40:34.408Z,71.60
2022-09-17T07:41:34.357Z,70.89
2022-09-17T07:42:34.297Z,71.09
2022-09-17T07:43:34.268Z,70.83
2022-09-17T07:44:34.263Z,70.32
2022-09-17T07:45:34.255Z,70.62
2022-09-17T07:46:34.282Z,70.08
2022-09-17T07:47:34.385Z,69.41
2022-09-17T07:48:34.217Z,69.92
2022-09-17T07:49:34.194Z,69.71
2022-09-17T07:50:34.188Z,69.31
2022-09-17T07:51:34.189Z,68.70
2022-09-17T07:52:34.217Z,67.99
2022-09-17T07:53:34.313Z,67.28
2022-09-17T07:54:34.141Z,66.50
2022-09-17T07:55:34.129Z,66.47
2022-09-17T07:56:34.131Z,66.97
2022-09-17T07:57:34.137Z,67.05
2022-09-17T07:58:34.139Z,67.48
2022-09-17T07:59:34.114Z,67.76
2022-09-17T08:00:34.096Z,68.16
2022-09-17T08:01:34.193Z,65.86
2022-09-17T08:02:34.190Z,66.97
2022-09-17T08:03:34.211Z,65.76
2022-09-17T08:04:34.031Z,66.57
2022-09-17T08:05:34.083Z,65.42
2022-09-17T08:06:34.018Z,64.11
2022-09-17T08:07:33.999Z,64.44
2022-09-17T08:08:34.049Z,64.24
2022-09-17T08:09:33.974Z,65.22
2022-09-17T08:10:33.974Z,64.21
2022-09-17T08:12:33.944Z,64.82
2022-09-17T08:13:33.985Z,65.93
2022-09-17T08:14:33.995Z,65.80
2022-09-17T08:15:33.909Z,64.48
2022-09-17T08:16:34.006Z,64.21
2022-09-17T08:17:33.909Z,66.54
2022-09-17T08:18:33.877Z,65.09
2022-09-17T08:19:34.045Z,65.09
2022-09-17T08:20:33.862Z,64.69
2022-09-17T08:21:33.851Z,63.37
2022-09-17T08:22:33.847Z,63.40
2022-09-17T08:23:33.856Z,63.87
2022-09-17T08:24:33.857Z,64.01
2022-09-17T08:25:33.821Z,63.78
2022-09-17T08:26:33.805Z,63.98
2022-09-17T08:27:33.779Z,63.87
2022-09-17T08:28:33.769Z,63.87
2022-09-17T08:29:35.416Z,64.48
2022-09-17T08:30:33.796Z,64.21
2022-09-17T08:31:33.814Z,63.73
2022-09-17T08:32:33.728Z,63.93
2022-09-17T08:33:33.713Z,64.61
2022-09-17T08:34:33.708Z,63.73
2022-09-17T08:35:33.813Z,64.11
2022-09-17T08:36:33.735Z,64.41
2022-09-17T08:37:33.669Z,63.70
2022-09-17T08:38:37.799Z,63.93
2022-09-17T08:39:33.649Z,63.70
2022-09-17T08:40:33.760Z,64.31
2022-09-17T08:41:33.630Z,63.83
2022-09-17T08:42:33.616Z,64.61
2022-09-17T08:43:33.632Z,65.02
2022-09-17T08:44:33.591Z,64.51
2022-09-17T08:45:33.639Z,64.41
2022-09-17T08:46:33.663Z,65.02
2022-09-17T08:47:33.572Z,64.11
2022-09-17T08:48:33.611Z,63.63
2022-09-17T08:49:33.581Z,63.81
2022-09-17T08:50:33.529Z,64.41
2022-09-17T08:51:33.644Z,64.11
2022-09-17T08:52:33.503Z,63.81
2022-09-17T08:53:33.494Z,64.31
2022-09-17T08:54:33.598Z,63.78
2022-09-17T08:55:33.481Z,62.38
2022-09-17T08:56:33.513Z,63.40
2022-09-17T08:57:33.502Z,63.30
2022-09-17T08:58:33.472Z,63.60
2022-09-17T08:59:33.435Z,63.78
2022-09-17T09:00:33.412Z,63.40
2022-09-17T09:01:33.405Z,64.61
2022-09-17T09:02:33.496Z,64.51
2022-09-17T09:03:33.429Z,64.72
2022-09-17T09:04:33.431Z,65.90
2022-09-17T09:05:33.381Z,65.39
2022-09-17T09:06:33.417Z,65.83
2022-09-17T09:07:33.472Z,66.00
2022-09-17T09:08:33.337Z,66.24
2022-09-17T09:09:33.372Z,66.03
2022-09-17T09:10:33.309Z,66.24
2022-09-17T09:11:33.313Z,66.16
2022-09-17T09:12:33.397Z,66.67
2022-09-17T09:13:33.274Z,66.30
2022-09-17T09:14:33.269Z,66.91
2022-09-17T09:15:33.263Z,66.16
2022-09-17T09:16:33.324Z,66.54
2022-09-17T09:17:33.296Z,65.96
2022-09-17T09:18:33.241Z,65.66
2022-09-17T09:19:33.210Z,65.76
2022-09-17T09:20:33.198Z,64.95
2022-09-17T09:21:33.206Z,65.62
2022-09-17T09:22:33.180Z,64.41
2022-09-17T09:23:33.337Z,63.81
2022-09-17T09:24:33.242Z,64.31
2022-09-17T09:25:33.147Z,64.11
2022-09-17T09:26:33.134Z,64.18
2022-09-17T09:27:33.120Z,63.87
2022-09-17T09:28:33.163Z,63.87
2022-09-17T09:29:33.099Z,64.18
2022-09-17T09:30:33.106Z,63.87
2022-09-17T09:31:33.241Z,63.37
2022-09-17T09:32:33.085Z,63.54
2022-09-17T09:33:33.089Z,62.26
2022-09-17T09:34:33.087Z,62.43
2022-09-17T09:35:33.035Z,63.13
2022-09-17T09:36:33.558Z,62.46
2022-09-17T09:37:33.096Z,62.56
2022-09-17T09:38:33.068Z,63.27
2022-09-17T09:39:39.219Z,63.67
2022-09-17T09:40:34.042Z,63.37
2022-09-17T09:41:32.993Z,63.47
2022-09-17T09:42:32.955Z,63.44
2022-09-17T09:43:59.584Z,63.31
2022-09-17T09:44:33.030Z,62.12
2022-09-17T09:45:32.923Z,62.56
2022-09-17T09:46:33.001Z,61.75
2022-09-17T09:47:32.903Z,61.92
2022-09-17T09:48:32.894Z,61.55
2022-09-17T09:49:32.925Z,62.56
2022-09-17T09:50:54.739Z,61.62
2022-09-17T09:51:32.862Z,62.53
2022-09-17T09:52:32.845Z,62.23
2022-09-17T09:53:32.902Z,61.72
2022-09-17T09:54:32.823Z,62.33
2022-09-17T09:55:32.977Z,61.90
2022-09-17T09:56:32.860Z,62.19
2022-09-17T09:57:32.868Z,61.49
2022-09-17T09:58:32.783Z,61.46
2022-09-17T09:59:32.783Z,60.25
2022-09-17T10:00:32.802Z,60.14
2022-09-17T10:01:32.883Z,60.14
2022-09-17T10:02:32.834Z,59.87
2022-09-17T10:03:32.835Z,60.88
2022-09-17T10:04:32.715Z,61.39
2022-09-17T10:05:32.717Z,60.98
2022-09-17T10:06:32.695Z,62.19
2022-09-17T10:07:32.691Z,61.16
2022-09-17T10:08:32.718Z,61.25
2022-09-17T10:09:32.725Z,61.33
2022-09-17T10:10:32.654Z,60.82
2022-09-17T10:11:32.796Z,61.33
2022-09-17T10:12:32.637Z,60.05
2022-09-17T10:13:32.675Z,58.80
2022-09-17T10:14:32.614Z,58.78
2022-09-17T10:15:32.667Z,60.52
2022-09-17T10:16:32.703Z,60.42
2022-09-17T10:17:32.579Z,58.98
2022-09-17T10:18:32.580Z,58.27
2022-09-17T10:19:32.608Z,57.59
2022-09-17T10:20:32.543Z,56.56
2022-09-17T10:21:32.543Z,56.88
2022-09-17T10:22:32.533Z,56.68
2022-09-17T10:23:32.514Z,56.98
2022-09-17T10:24:32.550Z,57.18
2022-09-17T10:25:32.512Z,56.07
2022-09-17T10:26:32.478Z,57.39
2022-09-17T10:27:32.596Z,56.68
2022-09-17T10:28:32.472Z,58.02
2022-09-17T10:29:32.497Z,57.11
2022-09-17T10:30:32.489Z,57.62
2022-09-17T10:31:32.501Z,58.30
2022-09-17T10:32:32.411Z,59.91
2022-09-17T10:33:32.474Z,61.43
2022-09-17T10:34:32.402Z,60.80
2022-09-17T10:35:32.420Z,61.13
2022-09-17T10:36:35.936Z,62.11
2022-09-17T10:37:32.362Z,61.07
2022-09-17T10:38:32.349Z,62.01
2022-09-17T10:39:32.459Z,62.21
2022-09-17T10:40:32.426Z,62.41
2022-09-17T10:41:32.322Z,62.01
2022-09-17T10:42:32.319Z,62.88
2022-09-17T10:43:32.404Z,62.96
2022-09-17T10:44:32.283Z,62.25
2022-09-17T10:45:32.399Z,62.38
2022-09-17T10:46:32.336Z,61.47
2022-09-17T10:47:32.335Z,62.18
2022-09-17T10:48:32.255Z,62.01
2022-09-17T10:49:32.224Z,62.28
2022-09-17T10:50:32.217Z,62.28
2022-09-17T10:51:32.231Z,61.88
2022-09-17T10:52:32.434Z,62.25
2022-09-17T10:53:32.197Z,61.85
2022-09-17T10:54:32.193Z,61.92
2022-09-17T10:55:32.157Z,61.61
2022-09-17T10:56:32.148Z,62.32
2022-09-17T10:57:32.190Z,61.18
2022-09-17T10:58:32.171Z,61.99
2022-09-17T10:59:32.246Z,60.68
2022-09-17T11:00:32.107Z,59.90
2022-09-17T11:01:32.163Z,60.51
2022-09-17T11:02:32.197Z,60.81
2022-09-17T11:03:32.123Z,60.61
2022-09-17T11:04:32.068Z,60.94
2022-09-17T11:05:32.092Z,61.75
2022-09-17T11:06:32.038Z,59.96
2022-09-17T11:07:32.030Z,60.03
2022-09-17T11:08:32.101Z,59.83
2022-09-17T11:09:32.516Z,60.24
2022-09-17T11:10:31.999Z,59.42
2022-09-17T11:11:32.014Z,60.31
2022-09-17T11:12:32.014Z,58.52
2022-09-17T11:13:32.008Z,58.92
2022-09-17T11:14:32.033Z,60.36
2022-09-17T11:15:32.059Z,59.66
2022-09-17T11:16:32.027Z,61.40
2022-09-17T11:17:31.963Z,63.99
2022-09-17T11:18:31.912Z,66.21
2022-09-17T11:19:31.941Z,67.99
2022-09-17T11:20:31.885Z,68.13
2022-09-17T11:21:31.877Z,67.79
2022-09-17T11:22:31.911Z,67.00
2022-09-17T11:23:31.866Z,70.96
2022-09-17T11:24:31.894Z,69.54
2022-09-17T11:25:31.881Z,71.60
2022-09-17T11:26:31.839Z,70.79
2022-09-17T11:27:31.809Z,71.60
2022-09-17T11:28:31.799Z,70.83
2022-09-17T11:29:31.782Z,71.44
2022-09-17T11:30:31.782Z,71.64
2022-09-17T11:31:31.951Z,72.14
2022-09-17T11:32:31.761Z,72.55
2022-09-17T11:33:31.740Z,73.16
2022-09-17T11:34:31.737Z,73.66
2022-09-17T11:35:31.764Z,74.74
2022-09-17T11:36:31.711Z,75.56
2022-09-17T11:37:31.753Z,75.46
2022-09-17T11:38:31.687Z,76.54
2022-09-17T11:39:31.680Z,77.04
2022-09-17T11:40:31.715Z,75.82
2022-09-17T11:41:31.655Z,76.13
2022-09-17T11:42:31.701Z,76.74
2022-09-17T11:43:31.654Z,76.50
2022-09-17T11:44:31.620Z,75.59
2022-09-17T11:45:31.616Z,76.40
2022-09-17T11:46:31.675Z,75.38
2022-09-17T11:47:31.706Z,75.15
2022-09-17T11:48:31.624Z,75.25
2022-09-17T11:49:31.649Z,75.01
2022-09-17T11:50:31.570Z,74.51
2022-09-17T11:51:31.557Z,73.69
2022-09-17T11:52:31.548Z,72.99
2022-09-17T11:53:31.541Z,73.19
2022-09-17T11:54:31.521Z,73.80
2022-09-17T11:55:31.577Z,73.25
2022-09-17T11:56:31.543Z,73.56
2022-09-17T11:57:31.480Z,71.77
2022-09-17T11:58:31.468Z,71.73
2022-09-17T11:59:31.474Z,71.70
2022-09-17T12:00:31.507Z,71.80
2022-09-17T12:01:31.494Z,72.81
2022-09-17T12:02:31.505Z,71.17
2022-09-17T12:03:31.543Z,71.47
2022-09-17T12:04:31.428Z,71.50
2022-09-17T12:05:31.401Z,71.40
2022-09-17T12:06:31.383Z,70.79
2022-09-17T12:07:31.412Z,70.36
2022-09-17T12:08:31.359Z,70.22
2022-09-17T12:09:31.402Z,70.15
2022-09-17T12:10:31.344Z,69.62
2022-09-17T12:11:31.331Z,69.14
2022-09-17T12:12:48.944Z,69.11
2022-09-17T12:13:32.358Z,68.47
2022-09-17T12:14:31.302Z,68.47
2022-09-17T12:15:31.334Z,65.84
2022-09-17T12:16:31.393Z,67.66
2022-09-17T12:17:31.262Z,67.86
2022-09-17T12:18:32.972Z,66.12
2022-09-17T12:19:31.368Z,65.81
2022-09-17T12:20:31.278Z,64.40
2022-09-17T12:21:31.228Z,63.79
2022-09-17T12:22:31.264Z,63.90
2022-09-17T12:23:31.205Z,63.90
2022-09-17T12:24:31.192Z,61.77
2022-09-17T12:25:31.216Z,61.68
2022-09-17T12:26:31.206Z,62.08
2022-09-17T12:27:31.180Z,62.35
2022-09-17T12:28:31.144Z,62.08
2022-09-17T12:29:31.138Z,60.77
2022-09-17T12:30:31.160Z,60.06
2022-09-17T12:31:31.193Z,60.57
2022-09-17T12:32:31.112Z,58.65
2022-09-17T12:33:31.126Z,59.42
2022-09-17T12:34:31.076Z,59.02
2022-09-17T12:35:59.849Z,59.22
2022-09-17T12:36:32.099Z,59.22
2022-09-17T12:37:31.043Z,58.92
2022-09-17T12:38:31.085Z,57.61
2022-09-17T12:39:31.024Z,56.52
2022-09-17T12:40:31.123Z,57.81
2022-09-17T12:41:31.002Z,56.43
2022-09-17T12:42:31.009Z,56.32
2022-09-17T12:43:30.990Z,56.90
2022-09-17T12:44:31.048Z,56.50
2022-09-17T12:45:30.999Z,56.60
2022-09-17T12:46:31.009Z,55.09
2022-09-17T12:47:30.941Z,53.58
2022-09-17T12:48:30.967Z,54.58
2022-09-17T12:49:30.915Z,53.50
2022-09-17T12:50:30.908Z,54.18
2022-09-17T12:51:31.006Z,54.28
2022-09-17T12:52:30.895Z,53.47
2022-09-17T12:53:30.945Z,54.99